Terminal Aerodrome Forecast
Issued by NWS

Home | Current Version | Previous Version | Text Only | Print | Product List | Glossary On
Versions: 1 2 3 4 5 6 7 8 9 10 11 12 13
000
FTUS45 KABQ 211133
TAFTCC
TAF
KTCC 211133Z 2112/2212 26014G24KT P6SM BKN200
     FM211500 24024G33KT P6SM SCT120
      TEMPO 2115/2118 3SM BLDU
     FM211800 27032G43KT P6SM SCT120
     FM220000 34024G33KT P6SM OVC050
     FM220400 32018KT P6SM BKN050
     FM220600 32010KT P6SM SCT050=

USA.gov is the U.S. government's official web portal to all federal, state and local government web resources and services.